createdAt,value
2023-05-20T00:04:57.089Z,8.7
2023-05-20T00:09:55.588Z,8.8
2023-05-20T00:14:55.850Z,8.8
2023-05-20T00:19:52.042Z,8.8
2023-05-20T00:24:50.135Z,8.7
2023-05-20T00:29:48.437Z,8.6
2023-05-20T00:34:46.328Z,8.2
2023-05-20T00:39:44.686Z,8.5
2023-05-20T00:44:42.651Z,8.4
2023-05-20T00:49:41.352Z,8.4
2023-05-20T00:54:39.722Z,8.4
2023-05-20T00:59:37.772Z,8.4
2023-05-20T01:04:35.617Z,8.3
2023-05-20T01:09:34.057Z,8.3
2023-05-20T01:14:32.521Z,8.3
2023-05-20T01:19:30.661Z,8.1
2023-05-20T01:24:28.622Z,7.9
2023-05-20T01:29:26.391Z,7.6
2023-05-20T01:34:24.422Z,7.5
2023-05-20T01:39:22.581Z,7.6
2023-05-20T01:44:20.898Z,7.7
2023-05-20T01:49:18.978Z,7.7
2023-05-20T01:54:17.042Z,7.6
2023-05-20T01:59:15.145Z,7.6
2023-05-20T02:04:13.144Z,7.6
2023-05-20T02:09:11.288Z,7.5
2023-05-20T02:14:09.338Z,7.3
2023-05-20T02:19:07.187Z,7.1
2023-05-20T02:24:05.037Z,7
2023-05-20T02:29:02.973Z,6.9
2023-05-20T02:34:01.222Z,6.9
2023-05-20T02:38:59.585Z,6.7
2023-05-20T02:43:57.568Z,6.9
2023-05-20T02:48:55.919Z,6.9
2023-05-20T02:53:54.064Z,6.7
2023-05-20T02:58:52.194Z,6.5
2023-05-20T03:03:54.036Z,6.9
2023-05-20T03:08:51.734Z,7
2023-05-20T03:13:49.880Z,7.2
2023-05-20T03:18:48.167Z,7.2
2023-05-20T03:23:46.303Z,7.8
2023-05-20T03:28:44.901Z,8.6
2023-05-20T03:33:43.758Z,9.5
2023-05-20T03:38:42.981Z,10.8
2023-05-20T03:43:42.571Z,12.6
2023-05-20T03:48:42.456Z,14.3
2023-05-20T03:53:42.061Z,16.2
2023-05-20T03:58:41.665Z,17.3
2023-05-20T04:03:41.251Z,18.5
2023-05-20T04:08:40.034Z,19.2
2023-05-20T04:13:39.227Z,19.6
2023-05-20T04:18:38.157Z,20.5
2023-05-20T04:23:37.400Z,21.9
2023-05-20T04:28:36.725Z,22.6
2023-05-20T04:33:35.738Z,23.5
2023-05-20T04:38:34.197Z,24.3
2023-05-20T04:43:32.737Z,25.2
2023-05-20T04:48:32.400Z,25.7
2023-05-20T04:53:31.759Z,27
2023-05-20T04:58:30.905Z,28.7
2023-05-20T05:03:29.734Z,28.9
2023-05-20T05:08:28.630Z,30.2
2023-05-20T05:13:27.540Z,31.4
2023-05-20T05:18:26.484Z,31.2
2023-05-20T05:23:25.493Z,31.6
2023-05-20T05:28:23.852Z,32.8
2023-05-20T05:33:22.829Z,33.9
2023-05-20T05:38:21.393Z,34.2
2023-05-20T05:43:19.836Z,34.4
2023-05-20T05:48:18.465Z,35
2023-05-20T05:53:17.036Z,35.1
2023-05-20T05:58:15.478Z,35.6
2023-05-20T06:03:14.157Z,36.4
2023-05-20T06:08:12.117Z,36.4
2023-05-20T06:13:10.734Z,37
2023-05-20T06:18:08.632Z,36
2023-05-20T06:23:09.827Z,36
2023-05-20T06:28:08.018Z,36.3
2023-05-20T06:33:05.817Z,37.3
2023-05-20T06:38:03.925Z,36.7
2023-05-20T06:43:02.100Z,37.7
2023-05-20T06:48:00.578Z,36.9
2023-05-20T06:52:58.843Z,38.5
2023-05-20T06:57:58.191Z,38.6
2023-05-20T07:02:56.865Z,37.8
2023-05-20T07:07:55.057Z,38.1
2023-05-20T07:12:53.714Z,39.3
2023-05-20T07:17:52.349Z,38.3
2023-05-20T07:22:51.045Z,38.5
2023-05-20T07:27:49.712Z,40.6
2023-05-20T07:32:51.435Z,39.1
2023-05-20T07:37:49.417Z,40.3
2023-05-20T07:42:48.261Z,40
2023-05-20T07:47:46.491Z,40.5
2023-05-20T07:52:55.727Z,40.9
2023-05-20T07:57:44.760Z,42.6
2023-05-20T08:02:42.033Z,42
2023-05-20T08:07:39.748Z,42.9
2023-05-20T08:12:37.304Z,41.4
2023-05-20T08:17:36.074Z,40.5
2023-05-20T08:22:34.791Z,43.1
2023-05-20T08:27:33.069Z,42
2023-05-20T08:32:31.815Z,44.3
2023-05-20T08:37:30.630Z,45.5
2023-05-20T08:42:28.465Z,45.8
2023-05-20T08:47:25.908Z,44.7
2023-05-20T08:52:23.504Z,44.5
2023-05-20T08:57:21.732Z,43.9
2023-05-20T09:02:19.477Z,45.3
2023-05-20T09:07:18.441Z,44.8
2023-05-20T09:12:15.668Z,44.2
2023-05-20T09:17:15.106Z,45.9
2023-05-20T09:22:13.481Z,45.2
2023-05-20T09:27:04.730Z,44.2
2023-05-20T09:32:06.717Z,46.5
2023-05-20T09:37:05.141Z,46.1
2023-05-20T09:42:04.041Z,46.8
2023-05-20T09:46:57.975Z,41
2023-05-20T09:51:46.914Z,33.1
2023-05-20T09:56:45.866Z,36.9
2023-05-20T10:01:40.061Z,33.1
2023-05-20T10:06:35.838Z,32.3
2023-05-20T10:11:45.729Z,45.7
2023-05-20T10:16:47.987Z,46.1
2023-05-20T10:21:41.787Z,37.4
2023-05-20T10:26:34.545Z,33.1
2023-05-20T10:31:32.659Z,40
2023-05-20T10:36:38.385Z,43.5
2023-05-20T10:41:35.294Z,36.6
2023-05-20T10:46:32.886Z,31.5
2023-05-20T10:51:23.675Z,29.2
2023-05-20T10:56:21.945Z,25.8
2023-05-20T11:01:17.917Z,25.9
2023-05-20T11:06:17.552Z,25.4
2023-05-20T11:11:13.225Z,24.5
2023-05-20T11:16:10.455Z,22.6
2023-05-20T11:21:07.307Z,21.9
2023-05-20T11:26:05.805Z,22.7
2023-05-20T11:31:13.808Z,40
2023-05-20T11:36:20.188Z,31.5
2023-05-20T11:41:09.338Z,34.3
2023-05-20T11:46:13.908Z,38.5
2023-05-20T11:51:11.559Z,37.3
2023-05-20T11:56:09.427Z,37.5
2023-05-20T12:01:20.805Z,38.2
2023-05-20T12:06:06.454Z,39.3
2023-05-20T12:11:03.985Z,38.9
2023-05-20T12:15:59.603Z,36.7
2023-05-20T12:20:57.253Z,38.3
2023-05-20T12:25:55.824Z,38.5
2023-05-20T12:30:53.675Z,36.5
2023-05-20T12:35:50.408Z,35.8
2023-05-20T12:40:47.756Z,36
2023-05-20T12:45:46.055Z,35.6
2023-05-20T12:50:43.147Z,35
2023-05-20T12:55:40.969Z,35.4
2023-05-20T13:00:39.469Z,34.8
2023-05-20T13:05:37.267Z,34.9
2023-05-20T13:10:35.374Z,34
2023-05-20T13:15:33.896Z,35.8
2023-05-20T13:20:30.768Z,35.2
2023-05-20T13:25:30.520Z,36.9
2023-05-20T13:30:27.855Z,34.1
2023-05-20T13:35:25.109Z,33.1
2023-05-20T13:40:19.937Z,31
2023-05-20T13:45:15.693Z,29.7
2023-05-20T13:50:14.758Z,28.2
2023-05-20T13:55:12.990Z,29.6
2023-05-20T14:00:09.506Z,25.1
2023-05-20T14:05:03.770Z,22.6
2023-05-20T14:10:03.583Z,24.6
2023-05-20T14:15:02.893Z,26.9
2023-05-20T14:20:02.331Z,27.6
2023-05-20T14:25:00.162Z,26.3
2023-05-20T14:29:57.734Z,25
2023-05-20T14:34:57.057Z,28.1
2023-05-20T14:39:56.866Z,27.8
2023-05-20T14:44:53.426Z,25.6
2023-05-20T14:49:50.186Z,24
2023-05-20T14:54:46.761Z,22.2
2023-05-20T14:59:43.697Z,21.1
2023-05-20T15:04:41.490Z,20.8
2023-05-20T15:09:39.431Z,20.2
2023-05-20T15:14:36.877Z,19.4
2023-05-20T15:19:34.913Z,19.3
2023-05-20T15:24:32.823Z,19.3
2023-05-20T15:29:30.929Z,19.4
2023-05-20T15:34:29.243Z,19.8
2023-05-20T15:39:27.618Z,19.7
2023-05-20T15:44:25.354Z,19.6
2023-05-20T15:49:23.544Z,19.8
2023-05-20T15:54:21.887Z,19.9
2023-05-20T15:59:20.117Z,20.3
2023-05-20T16:04:17.811Z,19.9
2023-05-20T16:09:15.505Z,19.6
2023-05-20T16:14:13.709Z,19.1
2023-05-20T16:19:11.658Z,18.9
2023-05-20T16:24:09.720Z,18.7
2023-05-20T16:29:07.826Z,18.7
2023-05-20T16:34:09.245Z,18.4
2023-05-20T16:39:06.103Z,17.8
2023-05-20T16:44:03.837Z,17.7
2023-05-20T16:49:01.791Z,17.4
2023-05-20T16:53:59.654Z,17.2
2023-05-20T16:58:57.516Z,16.9
2023-05-20T17:03:55.410Z,16.8
2023-05-20T17:08:53.091Z,16.2
2023-05-20T17:13:50.884Z,16.2
2023-05-20T17:18:48.852Z,16
2023-05-20T17:23:47.083Z,15.9
2023-05-20T17:28:45.188Z,15.8
2023-05-20T17:33:43.212Z,15.6
2023-05-20T17:38:41.619Z,15.4
2023-05-20T17:43:39.778Z,15.3
2023-05-20T17:48:38.840Z,15.1
2023-05-20T17:53:36.989Z,14.8
2023-05-20T17:58:34.920Z,14.7
2023-05-20T18:03:33.252Z,14.8
2023-05-20T18:08:31.590Z,15.1
2023-05-20T18:13:29.670Z,15.1
2023-05-20T18:18:28.102Z,15
2023-05-20T18:23:27.106Z,14.8
2023-05-20T18:28:25.149Z,14.7
2023-05-20T18:33:23.142Z,14.4
2023-05-20T18:38:20.683Z,14
2023-05-20T18:43:18.521Z,13.3
2023-05-20T18:48:23.267Z,13.1
2023-05-20T18:53:14.479Z,12.8
2023-05-20T18:58:12.340Z,12.5
2023-05-20T19:03:10.525Z,12.4
2023-05-20T19:08:08.535Z,12.5
2023-05-20T19:13:06.613Z,12.6
2023-05-20T19:18:04.872Z,12.9
2023-05-20T19:23:03.234Z,13.1
2023-05-20T19:28:01.536Z,13.3
2023-05-20T19:32:59.804Z,13.3
2023-05-20T19:37:58.019Z,13.4
2023-05-20T19:42:56.385Z,13.3
2023-05-20T19:47:54.591Z,13.2
2023-05-20T19:52:52.570Z,13.3
2023-05-20T19:57:50.548Z,13.1
2023-05-20T20:02:48.895Z,13
2023-05-20T20:07:46.811Z,13.3
2023-05-20T20:12:45.238Z,13.7
2023-05-20T20:17:43.408Z,13.7
2023-05-20T20:22:41.521Z,13.8
2023-05-20T20:27:39.621Z,13.7
2023-05-20T20:32:38.034Z,13.8
2023-05-20T20:37:35.812Z,13.8
2023-05-20T20:42:33.661Z,13.7
2023-05-20T20:47:31.610Z,13.6
2023-05-20T20:52:29.534Z,13.3
2023-05-20T20:57:27.562Z,13.2
2023-05-20T21:02:25.625Z,13
2023-05-20T21:07:23.576Z,13
2023-05-20T21:12:21.688Z,13.1
2023-05-20T21:17:19.731Z,13
2023-05-20T21:22:17.774Z,12.8
2023-05-20T21:27:15.711Z,12.7
2023-05-20T21:32:14.135Z,12.6
2023-05-20T21:37:12.010Z,12.5
2023-05-20T21:42:10.112Z,12.3
2023-05-20T21:47:08.127Z,12.1
2023-05-20T21:52:05.934Z,11.9
2023-05-20T21:57:03.798Z,11.6
2023-05-20T22:02:01.511Z,11.3
2023-05-20T22:06:59.190Z,11.1
2023-05-20T22:11:57.108Z,10.8
2023-05-20T22:16:54.977Z,10.6
2023-05-20T22:21:52.955Z,10.5
2023-05-20T22:26:50.640Z,10.1
2023-05-20T22:31:48.370Z,9.9
2023-05-20T22:36:46.028Z,9.7
2023-05-20T22:41:43.818Z,9.5
2023-05-20T22:46:41.632Z,9.4
2023-05-20T22:51:39.600Z,9.3
2023-05-20T22:56:37.867Z,9.2
2023-05-20T23:01:35.742Z,9.2
2023-05-20T23:06:33.979Z,9.3
2023-05-20T23:11:31.901Z,9.2
2023-05-20T23:16:29.890Z,9.1
2023-05-20T23:21:28.087Z,9.1
2023-05-20T23:26:26.263Z,9.2
2023-05-20T23:31:24.486Z,9.5
2023-05-20T23:36:23.007Z,9.7
2023-05-20T23:41:21.057Z,9.7
2023-05-20T23:46:19.214Z,9.5
2023-05-20T23:51:17.335Z,9.4
2023-05-20T23:56:15.813Z,9.2
